Jacques Jacob — ZDKG7 — position and weather

sailwx.info

Track history (hours):
 
Tides and Currents Weather Stations Pressure Air Temp Water Temp Dewpoint Dewpoint Depression Visibility Wind Speed Wind Dir Waves Ship Positions

Jacques Jacob

Last reported at 2015-Mar-26 22:26 UTC. Time now 2015-Mar-29 22:24 UTC.
Position N 30°37' E 032°19'.

Length 228 m; draft 13.6 m.

Type: Tanker. MMSI: 236612000.

Date/timePositionNaut miles runAvg speedWind from/ knotsBaromVisibWave heightAir tempDewpointWater temp
2015-Mar-26 22:26N 30°37' E 032°19'7 8.3
2015-Mar-26 21:33N 30°44' E 032°20'20 8.4
2015-Mar-26 19:09N 31°04' E 032°19'5 7.8
2015-Mar-26 18:33N 31°09' E 032°19'8 7.6
2015-Mar-26 17:31N 31°17' E 032°22'9 8.5
2015-Mar-26 16:28N 31°25' E 032°24'  
2015-Mar-21 13:16N 35°58' E 014°47'9 9.5
2015-Mar-21 12:21N 35°58' E 014°37'  
2015-Mar-18 19:33N 37°07' E 002°37'9 9.0
2015-Mar-18 18:33N 37°05' E 002°26'377 9.3
2015-Mar-17 02:13N 36°05' W 005°17'2 3.6
2015-Mar-17 01:33N 36°05' W 005°20'1 0.9
2015-Mar-17 00:33N 36°05' W 005°21'1 1.2
2015-Mar-16 23:26N 36°05' W 005°23'1 1.0
2015-Mar-16 22:33N 36°05' W 005°24'  
Track history (hours):
 
Tides and Currents Weather Stations Pressure Air Temp Water Temp Dewpoint Dewpoint Depression Visibility Wind Speed Wind Dir Waves Ship Positions

Jacques Jacob

Last reported at 2015-Mar-26 22:26 UTC. Time now 2015-Mar-29 22:24 UTC.
Position N 30°37' E 032°19'.

Length 228 m; draft 13.6 m.

Type: Tanker. MMSI: 236612000.

Date/timePositionNaut miles runAvg speedWind from/ knotsBaromVisibWave heightAir tempDewpointWater temp
2015-Mar-26 22:26N 30°37' E 032°19'7 8.3
2015-Mar-26 21:33N 30°44' E 032°20'20 8.4
2015-Mar-26 19:09N 31°04' E 032°19'5 7.8
2015-Mar-26 18:33N 31°09' E 032°19'8 7.6
2015-Mar-26 17:31N 31°17' E 032°22'9 8.5
2015-Mar-26 16:28N 31°25' E 032°24'  
2015-Mar-21 13:16N 35°58' E 014°47'9 9.5
2015-Mar-21 12:21N 35°58' E 014°37'  
2015-Mar-18 19:33N 37°07' E 002°37'9 9.0
2015-Mar-18 18:33N 37°05' E 002°26'377 9.3
2015-Mar-17 02:13N 36°05' W 005°17'2 3.6
2015-Mar-17 01:33N 36°05' W 005°20'1 0.9
2015-Mar-17 00:33N 36°05' W 005°21'1 1.2
2015-Mar-16 23:26N 36°05' W 005°23'1 1.0
2015-Mar-16 22:33N 36°05' W 005°24'  

Dump ship's entire track history